sensor_id;sensor_type;location;lat;lon;timestamp;P1;durP1;ratioP1;P2;durP2;ratioP2
5785;SDS011;2919;48.630;9.000;2023-05-02T00:00:25;5.33;;;3.30;;
5785;SDS011;2919;48.630;9.000;2023-05-02T00:02:51;5.63;;;3.37;;
5785;SDS011;2919;48.630;9.000;2023-05-02T00:05:16;6.03;;;3.10;;
5785;SDS011;2919;48.630;9.000;2023-05-02T00:07:42;7.03;;;3.73;;
5785;SDS011;2919;48.630;9.000;2023-05-02T00:10:08;10.20;;;4.20;;
5785;SDS011;2919;48.630;9.000;2023-05-02T00:12:34;4.83;;;3.17;;
5785;SDS011;2919;48.630;9.000;2023-05-02T00:15:00;11.73;;;4.30;;
5785;SDS011;2919;48.630;9.000;2023-05-02T00:17:25;14.07;;;5.83;;
5785;SDS011;2919;48.630;9.000;2023-05-02T00:19:51;13.17;;;6.37;;
5785;SDS011;2919;48.630;9.000;2023-05-02T00:22:17;14.47;;;5.50;;
5785;SDS011;2919;48.630;9.000;2023-05-02T00:24:42;13.47;;;6.83;;
5785;SDS011;2919;48.630;9.000;2023-05-02T00:27:08;5.57;;;3.23;;
5785;SDS011;2919;48.630;9.000;2023-05-02T00:29:34;6.43;;;4.00;;
5785;SDS011;2919;48.630;9.000;2023-05-02T00:32:00;6.63;;;3.13;;
5785;SDS011;2919;48.630;9.000;2023-05-02T00:34:29;9.23;;;3.97;;
5785;SDS011;2919;48.630;9.000;2023-05-02T00:36:55;8.33;;;4.67;;
5785;SDS011;2919;48.630;9.000;2023-05-02T00:39:21;8.03;;;4.43;;
5785;SDS011;2919;48.630;9.000;2023-05-02T00:41:46;6.03;;;2.90;;
5785;SDS011;2919;48.630;9.000;2023-05-02T00:44:12;7.27;;;3.90;;
5785;SDS011;2919;48.630;9.000;2023-05-02T00:46:38;4.47;;;2.60;;
5785;SDS011;2919;48.630;9.000;2023-05-02T00:49:03;7.67;;;4.03;;
5785;SDS011;2919;48.630;9.000;2023-05-02T00:51:31;7.27;;;3.63;;
5785;SDS011;2919;48.630;9.000;2023-05-02T00:53:57;6.60;;;3.70;;
5785;SDS011;2919;48.630;9.000;2023-05-02T00:56:24;9.90;;;3.00;;
5785;SDS011;2919;48.630;9.000;2023-05-02T00:58:50;4.37;;;3.20;;
5785;SDS011;2919;48.630;9.000;2023-05-02T01:04:07;7.80;;;3.27;;
5785;SDS011;2919;48.630;9.000;2023-05-02T01:06:57;6.50;;;3.47;;
5785;SDS011;2919;48.630;9.000;2023-05-02T01:09:47;4.13;;;2.73;;
5785;SDS011;2919;48.630;9.000;2023-05-02T01:12:53;5.20;;;2.83;;
5785;SDS011;2919;48.630;9.000;2023-05-02T01:15:18;6.73;;;3.10;;
5785;SDS011;2919;48.630;9.000;2023-05-02T01:17:46;7.97;;;3.80;;
5785;SDS011;2919;48.630;9.000;2023-05-02T01:20:15;3.60;;;2.50;;
5785;SDS011;2919;48.630;9.000;2023-05-02T01:22:45;3.83;;;2.83;;
5785;SDS011;2919;48.630;9.000;2023-05-02T01:27:54;5.67;;;3.40;;
5785;SDS011;2919;48.630;9.000;2023-05-02T01:30:25;5.70;;;3.27;;
5785;SDS011;2919;48.630;9.000;2023-05-02T01:32:53;8.53;;;3.50;;
5785;SDS011;2919;48.630;9.000;2023-05-02T01:35:21;5.30;;;2.87;;
5785;SDS011;2919;48.630;9.000;2023-05-02T01:37:48;8.20;;;3.90;;
5785;SDS011;2919;48.630;9.000;2023-05-02T01:40:17;6.53;;;3.80;;
5785;SDS011;2919;48.630;9.000;2023-05-02T01:42:46;7.17;;;4.03;;
5785;SDS011;2919;48.630;9.000;2023-05-02T01:45:14;4.93;;;3.10;;
5785;SDS011;2919;48.630;9.000;2023-05-02T01:47:41;3.27;;;2.27;;
5785;SDS011;2919;48.630;9.000;2023-05-02T01:50:08;6.77;;;2.87;;
5785;SDS011;2919;48.630;9.000;2023-05-02T01:52:37;4.53;;;2.80;;
5785;SDS011;2919;48.630;9.000;2023-05-02T01:55:05;5.00;;;2.93;;
5785;SDS011;2919;48.630;9.000;2023-05-02T01:57:35;7.97;;;3.73;;
5785;SDS011;2919;48.630;9.000;2023-05-02T02:00:04;4.97;;;2.90;;
5785;SDS011;2919;48.630;9.000;2023-05-02T02:02:31;3.63;;;2.90;;
5785;SDS011;2919;48.630;9.000;2023-05-02T02:04:58;3.90;;;2.30;;
5785;SDS011;2919;48.630;9.000;2023-05-02T02:07:26;4.93;;;3.00;;
5785;SDS011;2919;48.630;9.000;2023-05-02T02:09:52;4.90;;;2.73;;
5785;SDS011;2919;48.630;9.000;2023-05-02T02:12:27;5.70;;;3.53;;
5785;SDS011;2919;48.630;9.000;2023-05-02T02:15:05;4.77;;;2.93;;
5785;SDS011;2919;48.630;9.000;2023-05-02T02:17:39;4.80;;;3.10;;
5785;SDS011;2919;48.630;9.000;2023-05-02T02:20:08;5.97;;;3.53;;
5785;SDS011;2919;48.630;9.000;2023-05-02T02:22:39;6.53;;;3.73;;
5785;SDS011;2919;48.630;9.000;2023-05-02T02:25:07;4.77;;;3.40;;
5785;SDS011;2919;48.630;9.000;2023-05-02T02:27:38;8.83;;;3.60;;
5785;SDS011;2919;48.630;9.000;2023-05-02T02:30:05;11.93;;;3.73;;
5785;SDS011;2919;48.630;9.000;2023-05-02T02:32:32;5.30;;;3.17;;
5785;SDS011;2919;48.630;9.000;2023-05-02T02:34:58;8.80;;;3.70;;
5785;SDS011;2919;48.630;9.000;2023-05-02T02:37:31;7.67;;;3.97;;
5785;SDS011;2919;48.630;9.000;2023-05-02T02:53:33;8.43;;;4.00;;
5785;SDS011;2919;48.630;9.000;2023-05-02T02:56:12;8.70;;;4.47;;
5785;SDS011;2919;48.630;9.000;2023-05-02T03:01:30;5.83;;;3.73;;
5785;SDS011;2919;48.630;9.000;2023-05-02T03:03:57;8.20;;;4.33;;
5785;SDS011;2919;48.630;9.000;2023-05-02T03:06:23;6.37;;;3.63;;
5785;SDS011;2919;48.630;9.000;2023-05-02T03:08:50;6.07;;;4.47;;
5785;SDS011;2919;48.630;9.000;2023-05-02T03:11:15;6.30;;;4.10;;
5785;SDS011;2919;48.630;9.000;2023-05-02T03:13:41;7.17;;;4.30;;
5785;SDS011;2919;48.630;9.000;2023-05-02T03:18:32;12.07;;;5.57;;
5785;SDS011;2919;48.630;9.000;2023-05-02T03:20:58;5.93;;;4.17;;
5785;SDS011;2919;48.630;9.000;2023-05-02T03:23:23;8.83;;;4.27;;
5785;SDS011;2919;48.630;9.000;2023-05-02T03:25:49;8.17;;;3.77;;
5785;SDS011;2919;48.630;9.000;2023-05-02T03:28:14;10.20;;;5.17;;
5785;SDS011;2919;48.630;9.000;2023-05-02T03:30:40;7.43;;;4.43;;
5785;SDS011;2919;48.630;9.000;2023-05-02T03:33:06;7.07;;;4.83;;
5785;SDS011;2919;48.630;9.000;2023-05-02T03:35:32;8.13;;;4.43;;
5785;SDS011;2919;48.630;9.000;2023-05-02T03:37:58;8.50;;;5.23;;
5785;SDS011;2919;48.630;9.000;2023-05-02T03:40:24;7.40;;;3.90;;
5785;SDS011;2919;48.630;9.000;2023-05-02T03:42:51;8.00;;;4.77;;
5785;SDS011;2919;48.630;9.000;2023-05-02T03:45:16;8.23;;;4.40;;
5785;SDS011;2919;48.630;9.000;2023-05-02T03:47:42;5.83;;;3.67;;
5785;SDS011;2919;48.630;9.000;2023-05-02T03:50:07;9.77;;;4.43;;
5785;SDS011;2919;48.630;9.000;2023-05-02T03:52:33;6.33;;;3.70;;
5785;SDS011;2919;48.630;9.000;2023-05-02T03:54:59;7.40;;;3.53;;
5785;SDS011;2919;48.630;9.000;2023-05-02T03:57:28;8.07;;;4.70;;
5785;SDS011;2919;48.630;9.000;2023-05-02T03:59:54;10.67;;;5.83;;
5785;SDS011;2919;48.630;9.000;2023-05-02T04:02:20;11.87;;;5.17;;
5785;SDS011;2919;48.630;9.000;2023-05-02T04:04:45;8.47;;;5.30;;
5785;SDS011;2919;48.630;9.000;2023-05-02T04:07:11;11.27;;;4.93;;
5785;SDS011;2919;48.630;9.000;2023-05-02T04:09:42;8.50;;;5.20;;
5785;SDS011;2919;48.630;9.000;2023-05-02T04:12:07;7.30;;;4.80;;
5785;SDS011;2919;48.630;9.000;2023-05-02T04:14:33;7.90;;;5.10;;
5785;SDS011;2919;48.630;9.000;2023-05-02T04:16:59;10.27;;;5.47;;
5785;SDS011;2919;48.630;9.000;2023-05-02T04:19:25;7.97;;;4.33;;
5785;SDS011;2919;48.630;9.000;2023-05-02T04:21:51;7.53;;;4.50;;
5785;SDS011;2919;48.630;9.000;2023-05-02T04:24:16;7.70;;;5.20;;
5785;SDS011;2919;48.630;9.000;2023-05-02T04:26:42;8.10;;;4.07;;
5785;SDS011;2919;48.630;9.000;2023-05-02T04:29:08;5.60;;;4.40;;
5785;SDS011;2919;48.630;9.000;2023-05-02T04:31:34;15.93;;;5.57;;
5785;SDS011;2919;48.630;9.000;2023-05-02T04:34:00;10.07;;;5.20;;
5785;SDS011;2919;48.630;9.000;2023-05-02T04:36:26;7.00;;;4.60;;
5785;SDS011;2919;48.630;9.000;2023-05-02T04:38:52;8.50;;;4.70;;
5785;SDS011;2919;48.630;9.000;2023-05-02T04:41:18;7.80;;;4.83;;
5785;SDS011;2919;48.630;9.000;2023-05-02T04:43:44;7.10;;;4.07;;
5785;SDS011;2919;48.630;9.000;2023-05-02T04:46:09;7.63;;;4.50;;
5785;SDS011;2919;48.630;9.000;2023-05-02T04:48:35;8.40;;;4.43;;
5785;SDS011;2919;48.630;9.000;2023-05-02T04:51:01;9.37;;;5.10;;
5785;SDS011;2919;48.630;9.000;2023-05-02T04:53:26;7.90;;;4.93;;
5785;SDS011;2919;48.630;9.000;2023-05-02T04:55:52;11.00;;;5.50;;
5785;SDS011;2919;48.630;9.000;2023-05-02T04:58:18;7.10;;;4.00;;
5785;SDS011;2919;48.630;9.000;2023-05-02T05:00:44;8.90;;;4.17;;
5785;SDS011;2919;48.630;9.000;2023-05-02T05:03:09;10.40;;;5.03;;
5785;SDS011;2919;48.630;9.000;2023-05-02T05:05:35;10.43;;;5.50;;
5785;SDS011;2919;48.630;9.000;2023-05-02T05:08:01;11.10;;;6.20;;
5785;SDS011;2919;48.630;9.000;2023-05-02T05:10:26;12.30;;;6.33;;
5785;SDS011;2919;48.630;9.000;2023-05-02T05:12:52;13.97;;;6.07;;
5785;SDS011;2919;48.630;9.000;2023-05-02T05:15:17;12.30;;;6.30;;
5785;SDS011;2919;48.630;9.000;2023-05-02T05:17:46;9.10;;;4.90;;
5785;SDS011;2919;48.630;9.000;2023-05-02T05:20:12;9.50;;;5.33;;
5785;SDS011;2919;48.630;9.000;2023-05-02T05:22:38;8.50;;;5.00;;
5785;SDS011;2919;48.630;9.000;2023-05-02T05:25:05;10.07;;;5.50;;
5785;SDS011;2919;48.630;9.000;2023-05-02T05:27:33;9.10;;;5.70;;
5785;SDS011;2919;48.630;9.000;2023-05-02T05:29:59;7.80;;;5.10;;
5785;SDS011;2919;48.630;9.000;2023-05-02T05:32:25;9.77;;;4.73;;
5785;SDS011;2919;48.630;9.000;2023-05-02T05:34:51;11.67;;;5.60;;
5785;SDS011;2919;48.630;9.000;2023-05-02T05:37:18;9.20;;;4.83;;
5785;SDS011;2919;48.630;9.000;2023-05-02T05:39:44;29.00;;;10.47;;
5785;SDS011;2919;48.630;9.000;2023-05-02T05:42:09;8.80;;;4.70;;
5785;SDS011;2919;48.630;9.000;2023-05-02T05:44:36;12.43;;;4.97;;
5785;SDS011;2919;48.630;9.000;2023-05-02T05:47:02;6.53;;;4.33;;
5785;SDS011;2919;48.630;9.000;2023-05-02T05:49:27;8.07;;;5.37;;
5785;SDS011;2919;48.630;9.000;2023-05-02T05:51:53;8.27;;;4.40;;
5785;SDS011;2919;48.630;9.000;2023-05-02T05:54:19;8.70;;;4.80;;
5785;SDS011;2919;48.630;9.000;2023-05-02T05:56:44;9.00;;;5.40;;
5785;SDS011;2919;48.630;9.000;2023-05-02T05:59:10;6.10;;;4.23;;
5785;SDS011;2919;48.630;9.000;2023-05-02T06:01:37;9.20;;;5.27;;
5785;SDS011;2919;48.630;9.000;2023-05-02T06:04:03;7.90;;;4.47;;
5785;SDS011;2919;48.630;9.000;2023-05-02T06:06:29;5.60;;;3.87;;
5785;SDS011;2919;48.630;9.000;2023-05-02T06:08:58;6.90;;;3.83;;
5785;SDS011;2919;48.630;9.000;2023-05-02T06:11:24;8.67;;;5.33;;
5785;SDS011;2919;48.630;9.000;2023-05-02T06:13:50;14.77;;;5.33;;
5785;SDS011;2919;48.630;9.000;2023-05-02T06:16:17;6.00;;;4.27;;
5785;SDS011;2919;48.630;9.000;2023-05-02T06:18:43;8.03;;;4.80;;
5785;SDS011;2919;48.630;9.000;2023-05-02T06:21:09;8.00;;;4.37;;
5785;SDS011;2919;48.630;9.000;2023-05-02T06:23:34;7.83;;;4.67;;
5785;SDS011;2919;48.630;9.000;2023-05-02T06:26:01;7.07;;;3.80;;
5785;SDS011;2919;48.630;9.000;2023-05-02T06:28:28;9.87;;;5.40;;
5785;SDS011;2919;48.630;9.000;2023-05-02T06:30:58;6.67;;;4.43;;
5785;SDS011;2919;48.630;9.000;2023-05-02T06:33:28;8.33;;;4.93;;
5785;SDS011;2919;48.630;9.000;2023-05-02T06:35:54;9.43;;;4.67;;
5785;SDS011;2919;48.630;9.000;2023-05-02T06:38:20;8.40;;;4.57;;
5785;SDS011;2919;48.630;9.000;2023-05-02T06:40:46;6.63;;;4.07;;
5785;SDS011;2919;48.630;9.000;2023-05-02T06:43:12;6.90;;;3.80;;
5785;SDS011;2919;48.630;9.000;2023-05-02T06:45:39;6.57;;;4.00;;
5785;SDS011;2919;48.630;9.000;2023-05-02T06:48:05;6.50;;;4.97;;
5785;SDS011;2919;48.630;9.000;2023-05-02T06:50:31;7.40;;;3.97;;
5785;SDS011;2919;48.630;9.000;2023-05-02T06:52:57;5.97;;;4.67;;
5785;SDS011;2919;48.630;9.000;2023-05-02T06:55:23;6.77;;;4.13;;
5785;SDS011;2919;48.630;9.000;2023-05-02T06:57:49;9.37;;;4.90;;
5785;SDS011;2919;48.630;9.000;2023-05-02T07:00:15;10.30;;;5.10;;
5785;SDS011;2919;48.630;9.000;2023-05-02T07:02:41;11.40;;;5.57;;
5785;SDS011;2919;48.630;9.000;2023-05-02T07:05:08;13.13;;;5.77;;
5785;SDS011;2919;48.630;9.000;2023-05-02T07:07:34;8.23;;;4.90;;
5785;SDS011;2919;48.630;9.000;2023-05-02T07:09:59;9.93;;;5.97;;
5785;SDS011;2919;48.630;9.000;2023-05-02T07:12:25;13.27;;;7.00;;
5785;SDS011;2919;48.630;9.000;2023-05-02T07:14:51;13.23;;;7.20;;
5785;SDS011;2919;48.630;9.000;2023-05-02T07:17:16;15.10;;;6.97;;
5785;SDS011;2919;48.630;9.000;2023-05-02T07:19:42;13.90;;;6.20;;
5785;SDS011;2919;48.630;9.000;2023-05-02T07:22:08;16.27;;;7.27;;
5785;SDS011;2919;48.630;9.000;2023-05-02T07:24:33;18.53;;;8.57;;
5785;SDS011;2919;48.630;9.000;2023-05-02T07:26:59;15.17;;;8.03;;
5785;SDS011;2919;48.630;9.000;2023-05-02T07:29:25;11.77;;;6.93;;
5785;SDS011;2919;48.630;9.000;2023-05-02T07:31:51;22.63;;;8.20;;
5785;SDS011;2919;48.630;9.000;2023-05-02T07:34:16;18.70;;;9.43;;
5785;SDS011;2919;48.630;9.000;2023-05-02T07:36:42;15.57;;;9.60;;
5785;SDS011;2919;48.630;9.000;2023-05-02T07:39:07;16.63;;;8.70;;
5785;SDS011;2919;48.630;9.000;2023-05-02T07:41:33;16.73;;;7.60;;
5785;SDS011;2919;48.630;9.000;2023-05-02T07:43:59;19.03;;;8.33;;
5785;SDS011;2919;48.630;9.000;2023-05-02T07:46:25;15.67;;;9.40;;
5785;SDS011;2919;48.630;9.000;2023-05-02T07:48:50;18.30;;;9.77;;
5785;SDS011;2919;48.630;9.000;2023-05-02T07:51:18;19.23;;;10.60;;
5785;SDS011;2919;48.630;9.000;2023-05-02T07:53:45;20.93;;;8.93;;
5785;SDS011;2919;48.630;9.000;2023-05-02T07:56:11;23.87;;;10.53;;
5785;SDS011;2919;48.630;9.000;2023-05-02T07:58:36;22.73;;;9.70;;
5785;SDS011;2919;48.630;9.000;2023-05-02T08:01:02;15.80;;;9.30;;
5785;SDS011;2919;48.630;9.000;2023-05-02T08:03:29;18.70;;;9.90;;
5785;SDS011;2919;48.630;9.000;2023-05-02T08:05:54;18.43;;;11.00;;
5785;SDS011;2919;48.630;9.000;2023-05-02T08:08:20;20.60;;;10.10;;
5785;SDS011;2919;48.630;9.000;2023-05-02T08:10:46;19.90;;;10.77;;
5785;SDS011;2919;48.630;9.000;2023-05-02T08:13:11;22.20;;;11.77;;
5785;SDS011;2919;48.630;9.000;2023-05-02T08:15:37;26.17;;;13.20;;
5785;SDS011;2919;48.630;9.000;2023-05-02T08:18:03;27.90;;;12.70;;
5785;SDS011;2919;48.630;9.000;2023-05-02T08:20:28;24.50;;;12.27;;
5785;SDS011;2919;48.630;9.000;2023-05-02T08:22:54;31.10;;;13.83;;
5785;SDS011;2919;48.630;9.000;2023-05-02T08:25:19;20.37;;;12.43;;
5785;SDS011;2919;48.630;9.000;2023-05-02T08:27:45;28.40;;;15.87;;
5785;SDS011;2919;48.630;9.000;2023-05-02T08:30:11;29.80;;;14.30;;
5785;SDS011;2919;48.630;9.000;2023-05-02T08:32:37;26.70;;;13.80;;
5785;SDS011;2919;48.630;9.000;2023-05-02T08:35:03;34.53;;;16.67;;
5785;SDS011;2919;48.630;9.000;2023-05-02T08:37:28;34.97;;;15.40;;
5785;SDS011;2919;48.630;9.000;2023-05-02T08:39:55;37.50;;;16.90;;
5785;SDS011;2919;48.630;9.000;2023-05-02T08:42:20;30.10;;;16.00;;
5785;SDS011;2919;48.630;9.000;2023-05-02T08:44:47;30.53;;;14.33;;
5785;SDS011;2919;48.630;9.000;2023-05-02T08:47:13;21.47;;;12.77;;
5785;SDS011;2919;48.630;9.000;2023-05-02T08:49:40;24.53;;;14.03;;
5785;SDS011;2919;48.630;9.000;2023-05-02T08:52:07;24.87;;;12.47;;
5785;SDS011;2919;48.630;9.000;2023-05-02T08:54:35;28.10;;;14.17;;
5785;SDS011;2919;48.630;9.000;2023-05-02T08:57:02;29.93;;;15.37;;
5785;SDS011;2919;48.630;9.000;2023-05-02T08:59:28;27.43;;;12.87;;
5785;SDS011;2919;48.630;9.000;2023-05-02T09:01:58;31.23;;;15.60;;
5785;SDS011;2919;48.630;9.000;2023-05-02T09:04:28;32.53;;;14.93;;
5785;SDS011;2919;48.630;9.000;2023-05-02T09:06:57;26.90;;;13.83;;
5785;SDS011;2919;48.630;9.000;2023-05-02T09:09:22;24.27;;;13.50;;
5785;SDS011;2919;48.630;9.000;2023-05-02T09:11:49;25.47;;;14.30;;
5785;SDS011;2919;48.630;9.000;2023-05-02T09:14:16;29.33;;;13.90;;
5785;SDS011;2919;48.630;9.000;2023-05-02T09:16:42;26.30;;;13.90;;
5785;SDS011;2919;48.630;9.000;2023-05-02T09:19:08;28.93;;;14.80;;
5785;SDS011;2919;48.630;9.000;2023-05-02T09:21:35;23.20;;;12.40;;
5785;SDS011;2919;48.630;9.000;2023-05-02T09:24:20;31.30;;;12.40;;
5785;SDS011;2919;48.630;9.000;2023-05-02T09:29:25;26.50;;;11.80;;
5785;SDS011;2919;48.630;9.000;2023-05-02T09:31:51;23.23;;;11.00;;
5785;SDS011;2919;48.630;9.000;2023-05-02T09:34:17;21.20;;;8.87;;
5785;SDS011;2919;48.630;9.000;2023-05-02T09:36:47;18.53;;;10.90;;
5785;SDS011;2919;48.630;9.000;2023-05-02T09:39:16;25.73;;;12.60;;
5785;SDS011;2919;48.630;9.000;2023-05-02T09:41:46;22.57;;;11.40;;
5785;SDS011;2919;48.630;9.000;2023-05-02T09:44:13;22.17;;;12.90;;
5785;SDS011;2919;48.630;9.000;2023-05-02T09:49:06;22.17;;;11.10;;
5785;SDS011;2919;48.630;9.000;2023-05-02T09:51:34;27.37;;;12.07;;
5785;SDS011;2919;48.630;9.000;2023-05-02T09:54:00;20.70;;;10.80;;
5785;SDS011;2919;48.630;9.000;2023-05-02T09:56:27;21.90;;;11.10;;
5785;SDS011;2919;48.630;9.000;2023-05-02T09:59:11;25.00;;;11.83;;
5785;SDS011;2919;48.630;9.000;2023-05-02T10:01:40;21.87;;;12.50;;
5785;SDS011;2919;48.630;9.000;2023-05-02T10:04:08;23.40;;;11.43;;
5785;SDS011;2919;48.630;9.000;2023-05-02T10:06:40;30.77;;;12.07;;
5785;SDS011;2919;48.630;9.000;2023-05-02T10:09:09;22.40;;;10.07;;
5785;SDS011;2919;48.630;9.000;2023-05-02T10:11:41;18.33;;;10.17;;
5785;SDS011;2919;48.630;9.000;2023-05-02T10:14:08;18.00;;;10.03;;
5785;SDS011;2919;48.630;9.000;2023-05-02T10:16:35;19.67;;;10.63;;
5785;SDS011;2919;48.630;9.000;2023-05-02T10:19:09;12.87;;;9.03;;
5785;SDS011;2919;48.630;9.000;2023-05-02T10:21:36;17.10;;;9.13;;
5785;SDS011;2919;48.630;9.000;2023-05-02T10:24:06;15.07;;;8.50;;
5785;SDS011;2919;48.630;9.000;2023-05-02T10:26:33;21.27;;;8.93;;
5785;SDS011;2919;48.630;9.000;2023-05-02T10:28:59;17.17;;;9.80;;
5785;SDS011;2919;48.630;9.000;2023-05-02T10:31:25;17.63;;;8.67;;
5785;SDS011;2919;48.630;9.000;2023-05-02T10:33:57;15.60;;;9.27;;
5785;SDS011;2919;48.630;9.000;2023-05-02T10:36:25;12.80;;;7.60;;
5785;SDS011;2919;48.630;9.000;2023-05-02T10:38:52;19.33;;;9.60;;
5785;SDS011;2919;48.630;9.000;2023-05-02T10:41:25;19.43;;;10.17;;
5785;SDS011;2919;48.630;9.000;2023-05-02T10:43:53;16.63;;;9.17;;
5785;SDS011;2919;48.630;9.000;2023-05-02T10:48:59;15.30;;;7.57;;
5785;SDS011;2919;48.630;9.000;2023-05-02T10:51:28;12.93;;;7.50;;
5785;SDS011;2919;48.630;9.000;2023-05-02T10:54:15;10.17;;;6.50;;
5785;SDS011;2919;48.630;9.000;2023-05-02T10:57:02;28.97;;;9.03;;
5785;SDS011;2919;48.630;9.000;2023-05-02T11:01:58;16.93;;;8.77;;
5785;SDS011;2919;48.630;9.000;2023-05-02T11:04:25;17.97;;;8.50;;
5785;SDS011;2919;48.630;9.000;2023-05-02T11:07:17;11.40;;;6.63;;
5785;SDS011;2919;48.630;9.000;2023-05-02T11:09:43;14.43;;;7.10;;
5785;SDS011;2919;48.630;9.000;2023-05-02T11:12:08;11.80;;;6.77;;
5785;SDS011;2919;48.630;9.000;2023-05-02T11:19:31;14.33;;;7.23;;
5785;SDS011;2919;48.630;9.000;2023-05-02T11:22:33;12.20;;;6.03;;
5785;SDS011;2919;48.630;9.000;2023-05-02T11:24:59;17.97;;;5.60;;
5785;SDS011;2919;48.630;9.000;2023-05-02T11:29:54;9.93;;;6.40;;
5785;SDS011;2919;48.630;9.000;2023-05-02T11:38:01;10.80;;;5.70;;
5785;SDS011;2919;48.630;9.000;2023-05-02T11:40:28;10.70;;;6.30;;
5785;SDS011;2919;48.630;9.000;2023-05-02T11:42:56;16.73;;;8.53;;
5785;SDS011;2919;48.630;9.000;2023-05-02T11:45:32;10.57;;;6.40;;
5785;SDS011;2919;48.630;9.000;2023-05-02T11:48:03;13.73;;;6.50;;
5785;SDS011;2919;48.630;9.000;2023-05-02T11:50:30;11.37;;;6.90;;
5785;SDS011;2919;48.630;9.000;2023-05-02T11:53:08;9.73;;;6.27;;
5785;SDS011;2919;48.630;9.000;2023-05-02T11:55:43;10.20;;;6.60;;
5785;SDS011;2919;48.630;9.000;2023-05-02T11:58:30;10.87;;;6.50;;
5785;SDS011;2919;48.630;9.000;2023-05-02T12:00:57;11.63;;;5.97;;
5785;SDS011;2919;48.630;9.000;2023-05-02T12:03:26;12.93;;;7.23;;
5785;SDS011;2919;48.630;9.000;2023-05-02T12:05:56;17.23;;;7.37;;
5785;SDS011;2919;48.630;9.000;2023-05-02T12:08:35;11.10;;;6.23;;
5785;SDS011;2919;48.630;9.000;2023-05-02T12:11:01;11.73;;;7.00;;
5785;SDS011;2919;48.630;9.000;2023-05-02T12:13:27;16.80;;;7.37;;
5785;SDS011;2919;48.630;9.000;2023-05-02T12:15:53;13.17;;;7.00;;
5785;SDS011;2919;48.630;9.000;2023-05-02T12:18:21;10.63;;;6.23;;
5785;SDS011;2919;48.630;9.000;2023-05-02T12:20:48;17.47;;;8.37;;
5785;SDS011;2919;48.630;9.000;2023-05-02T12:23:21;12.33;;;6.70;;
5785;SDS011;2919;48.630;9.000;2023-05-02T12:25:48;12.10;;;6.63;;
5785;SDS011;2919;48.630;9.000;2023-05-02T12:28:16;16.53;;;7.93;;
5785;SDS011;2919;48.630;9.000;2023-05-02T12:30:43;12.57;;;7.10;;
5785;SDS011;2919;48.630;9.000;2023-05-02T12:33:11;12.30;;;6.30;;
5785;SDS011;2919;48.630;9.000;2023-05-02T12:35:36;16.80;;;8.13;;
5785;SDS011;2919;48.630;9.000;2023-05-02T12:40:51;16.97;;;8.57;;
5785;SDS011;2919;48.630;9.000;2023-05-02T12:43:19;17.00;;;8.73;;
5785;SDS011;2919;48.630;9.000;2023-05-02T12:45:46;17.67;;;8.03;;
5785;SDS011;2919;48.630;9.000;2023-05-02T12:50:48;20.27;;;9.00;;
5785;SDS011;2919;48.630;9.000;2023-05-02T12:53:14;17.27;;;8.73;;
5785;SDS011;2919;48.630;9.000;2023-05-02T12:55:39;18.30;;;7.67;;
5785;SDS011;2919;48.630;9.000;2023-05-02T12:58:06;17.80;;;8.70;;
5785;SDS011;2919;48.630;9.000;2023-05-02T13:00:39;14.60;;;8.10;;
5785;SDS011;2919;48.630;9.000;2023-05-02T13:03:05;19.17;;;8.10;;
5785;SDS011;2919;48.630;9.000;2023-05-02T13:05:32;16.27;;;8.00;;
5785;SDS011;2919;48.630;9.000;2023-05-02T13:07:58;25.20;;;9.47;;
5785;SDS011;2919;48.630;9.000;2023-05-02T13:10:24;14.33;;;8.27;;
5785;SDS011;2919;48.630;9.000;2023-05-02T13:12:51;16.10;;;9.80;;
5785;SDS011;2919;48.630;9.000;2023-05-02T13:15:17;16.57;;;9.90;;
5785;SDS011;2919;48.630;9.000;2023-05-02T13:17:43;15.67;;;8.90;;
5785;SDS011;2919;48.630;9.000;2023-05-02T13:20:09;17.90;;;10.50;;
5785;SDS011;2919;48.630;9.000;2023-05-02T13:22:37;19.83;;;10.20;;
5785;SDS011;2919;48.630;9.000;2023-05-02T13:25:06;22.43;;;10.47;;
5785;SDS011;2919;48.630;9.000;2023-05-02T13:27:32;22.67;;;9.10;;
5785;SDS011;2919;48.630;9.000;2023-05-02T13:29:58;19.23;;;10.70;;
5785;SDS011;2919;48.630;9.000;2023-05-02T13:32:28;27.90;;;8.90;;
5785;SDS011;2919;48.630;9.000;2023-05-02T13:34:53;21.23;;;10.87;;
5785;SDS011;2919;48.630;9.000;2023-05-02T13:37:19;22.27;;;10.40;;
5785;SDS011;2919;48.630;9.000;2023-05-02T13:39:45;18.60;;;9.93;;
5785;SDS011;2919;48.630;9.000;2023-05-02T13:42:11;20.73;;;8.70;;
5785;SDS011;2919;48.630;9.000;2023-05-02T13:44:36;21.17;;;9.07;;
5785;SDS011;2919;48.630;9.000;2023-05-02T13:47:02;24.93;;;10.70;;
5785;SDS011;2919;48.630;9.000;2023-05-02T13:49:28;18.57;;;9.20;;
5785;SDS011;2919;48.630;9.000;2023-05-02T13:51:54;20.63;;;9.50;;
5785;SDS011;2919;48.630;9.000;2023-05-02T13:54:20;19.53;;;11.10;;
5785;SDS011;2919;48.630;9.000;2023-05-02T13:56:45;15.80;;;9.83;;
5785;SDS011;2919;48.630;9.000;2023-05-02T13:59:11;18.20;;;9.60;;
5785;SDS011;2919;48.630;9.000;2023-05-02T14:01:36;14.80;;;7.87;;
5785;SDS011;2919;48.630;9.000;2023-05-02T14:04:04;16.70;;;8.17;;
5785;SDS011;2919;48.630;9.000;2023-05-02T14:06:33;15.87;;;8.43;;
5785;SDS011;2919;48.630;9.000;2023-05-02T14:08:59;15.30;;;6.73;;
5785;SDS011;2919;48.630;9.000;2023-05-02T14:11:25;19.43;;;7.50;;
5785;SDS011;2919;48.630;9.000;2023-05-02T14:13:51;15.40;;;7.83;;
5785;SDS011;2919;48.630;9.000;2023-05-02T14:16:16;14.23;;;8.00;;
5785;SDS011;2919;48.630;9.000;2023-05-02T14:18:42;14.57;;;7.70;;
5785;SDS011;2919;48.630;9.000;2023-05-02T14:21:09;15.77;;;9.50;;
5785;SDS011;2919;48.630;9.000;2023-05-02T14:23:35;17.57;;;8.07;;
5785;SDS011;2919;48.630;9.000;2023-05-02T14:26:01;18.37;;;8.73;;
5785;SDS011;2919;48.630;9.000;2023-05-02T14:28:27;17.60;;;8.40;;
5785;SDS011;2919;48.630;9.000;2023-05-02T14:30:53;16.63;;;8.13;;
5785;SDS011;2919;48.630;9.000;2023-05-02T14:33:19;18.33;;;7.03;;
5785;SDS011;2919;48.630;9.000;2023-05-02T14:35:45;15.30;;;7.37;;
5785;SDS011;2919;48.630;9.000;2023-05-02T14:38:10;16.80;;;7.00;;
5785;SDS011;2919;48.630;9.000;2023-05-02T14:40:36;12.43;;;6.63;;
5785;SDS011;2919;48.630;9.000;2023-05-02T14:43:02;10.33;;;5.37;;
5785;SDS011;2919;48.630;9.000;2023-05-02T14:45:27;13.87;;;5.63;;
5785;SDS011;2919;48.630;9.000;2023-05-02T14:47:53;9.67;;;5.90;;
5785;SDS011;2919;48.630;9.000;2023-05-02T14:50:19;15.97;;;5.67;;
5785;SDS011;2919;48.630;9.000;2023-05-02T14:52:45;11.07;;;6.17;;
5785;SDS011;2919;48.630;9.000;2023-05-02T14:55:11;9.73;;;5.30;;
5785;SDS011;2919;48.630;9.000;2023-05-02T14:57:36;10.43;;;5.50;;
5785;SDS011;2919;48.630;9.000;2023-05-02T15:00:05;11.93;;;4.93;;
5785;SDS011;2919;48.630;9.000;2023-05-02T15:02:34;11.20;;;6.50;;
5785;SDS011;2919;48.630;9.000;2023-05-02T15:05:01;12.93;;;5.43;;
5785;SDS011;2919;48.630;9.000;2023-05-02T15:07:31;12.37;;;5.93;;
5785;SDS011;2919;48.630;9.000;2023-05-02T15:09:57;11.50;;;5.70;;
5785;SDS011;2919;48.630;9.000;2023-05-02T15:12:23;11.23;;;6.43;;
5785;SDS011;2919;48.630;9.000;2023-05-02T15:14:50;12.40;;;6.27;;
5785;SDS011;2919;48.630;9.000;2023-05-02T15:17:15;9.90;;;5.30;;
5785;SDS011;2919;48.630;9.000;2023-05-02T15:19:41;12.30;;;5.90;;
5785;SDS011;2919;48.630;9.000;2023-05-02T15:22:06;12.33;;;6.33;;
5785;SDS011;2919;48.630;9.000;2023-05-02T15:24:32;15.13;;;6.50;;
5785;SDS011;2919;48.630;9.000;2023-05-02T15:26:58;9.63;;;4.60;;
5785;SDS011;2919;48.630;9.000;2023-05-02T15:29:23;9.57;;;4.47;;
5785;SDS011;2919;48.630;9.000;2023-05-02T15:31:49;10.30;;;5.37;;
5785;SDS011;2919;48.630;9.000;2023-05-02T15:34:15;11.37;;;5.00;;
5785;SDS011;2919;48.630;9.000;2023-05-02T15:36:40;9.93;;;4.77;;
5785;SDS011;2919;48.630;9.000;2023-05-02T15:39:07;14.30;;;5.30;;
5785;SDS011;2919;48.630;9.000;2023-05-02T15:41:32;14.43;;;5.33;;
5785;SDS011;2919;48.630;9.000;2023-05-02T15:43:58;9.03;;;5.23;;
5785;SDS011;2919;48.630;9.000;2023-05-02T15:46:24;10.43;;;4.60;;
5785;SDS011;2919;48.630;9.000;2023-05-02T15:48:50;10.27;;;5.10;;
5785;SDS011;2919;48.630;9.000;2023-05-02T15:51:16;12.40;;;5.73;;
5785;SDS011;2919;48.630;9.000;2023-05-02T15:53:42;11.70;;;5.07;;
5785;SDS011;2919;48.630;9.000;2023-05-02T15:56:09;11.70;;;4.10;;
5785;SDS011;2919;48.630;9.000;2023-05-02T15:58:35;6.30;;;3.00;;